Time;durP1;ratioP1;P1;durP2;ratioP2;P2;SDS_P1;SDS_P2;PMS_P1;PMS_P2;Temp;Humidity;BMP_temperature;BMP_pressure;BME280_temperature;BME280_humidity;BME280_pressure;Samples;Min_cycle;Max_cycle;Signal;HPM_P1;HPM_P2
2023/09/02 00:00:07;;;;;;;3.58;2.10;;;;;;;17.02;53.76;101290.66;5003874;28;20037;-83
2023/09/02 00:02:43;;;;;;;3.15;1.88;;;;;;;16.98;53.78;101286.50;5008235;28;20735;-83
2023/09/02 00:05:11;;;;;;;3.20;2.10;;;;;;;16.98;53.69;101290.13;5014479;28;20099;-83
2023/09/02 00:07:39;;;;;;;2.90;1.77;;;;;;;16.97;53.79;101291.16;5026753;28;20121;-83
2023/09/02 00:10:09;;;;;;;4.07;2.22;;;;;;;16.98;54.03;101294.81;5031225;28;20092;-83
2023/09/02 00:12:39;;;;;;;4.10;2.10;;;;;;;16.97;53.77;101288.41;5041048;28;20634;-83
2023/09/02 00:15:08;;;;;;;3.47;1.80;;;;;;;16.95;53.60;101290.44;5041794;28;20270;-83
2023/09/02 00:17:36;;;;;;;3.63;2.20;;;;;;;16.95;53.81;101284.03;5050116;28;20056;-83
2023/09/02 00:20:07;;;;;;;3.75;2.20;;;;;;;16.95;53.98;101282.13;5035174;28;20037;-82
2023/09/02 00:22:35;;;;;;;3.45;1.85;;;;;;;16.94;53.86;101276.75;5046035;28;20121;-83
2023/09/02 00:25:04;;;;;;;3.75;2.20;;;;;;;16.94;53.63;101280.41;5024564;28;20045;-83
2023/09/02 00:27:32;;;;;;;3.53;2.30;;;;;;;16.92;53.88;101279.69;5040245;28;20199;-83
2023/09/02 00:30:01;;;;;;;3.72;2.20;;;;;;;16.95;54.10;101281.25;5021195;28;20054;-82
2023/09/02 00:32:29;;;;;;;3.92;2.38;;;;;;;16.92;53.89;101282.44;5029969;28;20041;-83
2023/09/02 00:34:58;;;;;;;3.38;2.22;;;;;;;16.91;53.77;101285.38;5028336;28;20803;-83
2023/09/02 00:37:26;;;;;;;4.10;2.55;;;;;;;16.91;53.61;101279.84;5037214;28;20041;-82
2023/09/02 00:39:54;;;;;;;4.63;2.40;;;;;;;16.90;53.45;101280.91;5036581;28;20029;-82
2023/09/02 00:42:25;;;;;;;4.22;2.53;;;;;;;16.89;54.03;101277.28;5031377;28;20045;-82
2023/09/02 00:44:54;;;;;;;4.20;2.10;;;;;;;16.87;53.83;101276.56;5024784;28;20044;-83
2023/09/02 00:47:23;;;;;;;4.80;2.70;;;;;;;16.88;53.84;101274.66;5020060;28;20042;-83
2023/09/02 00:49:52;;;;;;;3.45;2.10;;;;;;;16.85;53.92;101278.63;5026819;28;20491;-83
2023/09/02 00:52:21;;;;;;;3.78;2.75;;;;;;;16.84;54.12;101276.88;5029625;28;21313;-83
2023/09/02 00:54:49;;;;;;;4.70;2.65;;;;;;;16.84;53.94;101284.31;5025454;28;20045;-83
2023/09/02 00:57:17;;;;;;;4.15;2.97;;;;;;;16.82;54.02;101281.75;5039736;28;20053;-83
2023/09/02 00:59:45;;;;;;;5.50;2.65;;;;;;;16.82;54.07;101281.75;5027693;28;20094;-83
2023/09/02 01:02:13;;;;;;;4.22;2.85;;;;;;;16.81;54.16;101288.28;5026866;28;20041;-83
2023/09/02 01:04:44;;;;;;;6.25;2.70;;;;;;;16.82;53.86;101289.16;5028333;28;20048;-83
2023/09/02 01:07:13;;;;;;;5.32;2.60;;;;;;;16.80;54.02;101291.22;5043741;28;20102;-83
2023/09/02 01:09:42;;;;;;;4.70;2.35;;;;;;;16.79;54.38;101292.25;5025217;28;20171;-82
2023/09/02 01:12:12;;;;;;;4.00;2.40;;;;;;;16.78;54.40;101294.13;5032666;28;20047;-83
2023/09/02 01:14:41;;;;;;;4.15;2.22;;;;;;;16.78;54.31;101287.75;5026914;28;20037;-82
2023/09/02 01:17:09;;;;;;;3.70;2.40;;;;;;;16.78;54.36;101296.91;5031050;28;20037;-84
2023/09/02 01:19:39;;;;;;;3.90;2.45;;;;;;;16.78;54.09;101296.91;5028824;28;20045;-82
2023/09/02 01:22:43;;;;;;;4.03;2.40;;;;;;;16.77;54.23;101303.47;5026634;28;20064;-83
2023/09/02 01:25:21;;;;;;;3.58;2.15;;;;;;;16.77;54.57;101303.47;5035707;28;20136;-82
2023/09/02 01:27:56;;;;;;;4.63;2.33;;;;;;;16.78;54.38;101302.44;5045202;28;20120;-83
2023/09/02 01:30:27;;;;;;;4.13;2.53;;;;;;;16.78;54.24;101301.56;5039773;28;20098;-83
2023/09/02 01:32:58;;;;;;;4.78;2.50;;;;;;;16.77;54.37;101295.16;5029796;28;20684;-84
2023/09/02 01:35:30;;;;;;;4.10;2.25;;;;;;;16.77;54.30;101308.13;5028273;28;20570;-83
2023/09/02 01:37:58;;;;;;;4.15;2.60;;;;;;;16.75;54.27;101301.88;5024476;28;20076;-83
2023/09/02 01:40:28;;;;;;;3.72;2.40;;;;;;;16.77;54.29;101311.75;5028360;28;20060;-83
2023/09/02 01:42:59;;;;;;;4.65;2.47;;;;;;;16.77;54.09;101311.75;5040193;28;20220;-84
2023/09/02 01:45:30;;;;;;;3.90;2.40;;;;;;;16.78;54.59;101315.38;5034324;28;20091;-83
2023/09/02 01:47:59;;;;;;;4.40;2.38;;;;;;;16.75;54.52;101313.81;5029688;28;20393;-83
2023/09/02 01:50:29;;;;;;;4.78;2.47;;;;;;;16.75;54.62;101305.50;5043667;28;20049;-84
2023/09/02 01:52:59;;;;;;;3.67;2.50;;;;;;;16.73;54.71;101310.34;5034517;28;20040;-84
2023/09/02 01:55:27;;;;;;;3.75;2.33;;;;;;;16.71;54.47;101306.88;5035538;28;20049;-84
2023/09/02 01:57:56;;;;;;;4.30;2.25;;;;;;;16.71;54.35;101309.66;5031087;28;20041;-83
2023/09/02 02:00:25;;;;;;;4.03;2.75;;;;;;;16.70;54.36;101309.81;5023553;28;20045;-83
2023/09/02 02:02:54;;;;;;;4.35;2.30;;;;;;;16.68;54.39;101301.66;5040242;28;20048;-83
2023/09/02 02:05:32;;;;;;;3.67;2.45;;;;;;;16.70;54.36;101309.81;5046804;28;20133;-83
2023/09/02 02:08:05;;;;;;;5.00;2.70;;;;;;;16.68;54.46;101306.34;5035215;28;20404;-83
2023/09/02 02:10:36;;;;;;;5.20;2.70;;;;;;;16.67;54.44;101327.56;5030883;28;20041;-84
2023/09/02 02:13:06;;;;;;;3.92;2.45;;;;;;;16.68;54.23;101326.53;5031468;28;20081;-83
2023/09/02 02:15:34;;;;;;;4.93;2.53;;;;;;;16.65;54.11;101318.59;5029407;28;20551;-83
2023/09/02 02:18:02;;;;;;;3.80;2.22;;;;;;;16.64;54.19;101327.91;5049346;28;20095;-84
2023/09/02 02:20:42;;;;;;;4.45;2.70;;;;;;;16.65;54.38;101324.13;5025787;28;20053;-83
2023/09/02 02:23:10;;;;;;;5.72;2.72;;;;;;;16.61;54.67;101319.94;5042269;28;20037;-84
2023/09/02 02:25:38;;;;;;;4.50;2.90;;;;;;;16.61;54.20;101325.47;5033732;28;20108;-84
2023/09/02 02:28:08;;;;;;;4.35;2.72;;;;;;;16.61;54.09;101323.56;5027595;28;20052;-83
2023/09/02 02:30:36;;;;;;;4.20;2.53;;;;;;;16.60;54.33;101323.72;5032708;28;20049;-84
2023/09/02 02:33:05;;;;;;;5.20;2.67;;;;;;;16.59;54.26;101331.16;5029585;28;20156;-83
2023/09/02 02:35:33;;;;;;;4.95;2.58;;;;;;;16.60;54.24;101340.31;5026558;28;20512;-84
2023/09/02 02:38:02;;;;;;;3.80;2.25;;;;;;;16.59;54.40;101333.03;5031516;28;20558;-83
2023/09/02 02:40:31;;;;;;;3.78;2.58;;;;;;;16.59;54.01;101333.91;5029991;28;20488;-83
2023/09/02 02:43:00;;;;;;;4.20;3.00;;;;;;;16.58;54.14;101325.78;5011660;28;20053;-84
2023/09/02 02:45:29;;;;;;;4.25;2.55;;;;;;;16.59;54.52;101328.38;5033002;28;20083;-83
2023/09/02 02:47:58;;;;;;;4.10;2.92;;;;;;;16.58;54.25;101331.31;5022088;28;20057;-84
2023/09/02 02:50:26;;;;;;;5.07;2.78;;;;;;;16.57;53.96;101326.84;5009089;28;20141;-83
2023/09/02 02:52:54;;;;;;;4.20;2.80;;;;;;;16.55;54.16;101327.00;5015627;28;20046;-83
2023/09/02 02:55:22;;;;;;;5.25;3.13;;;;;;;16.54;54.26;101336.31;5032165;28;20041;-84
2023/09/02 02:57:50;;;;;;;4.72;2.85;;;;;;;16.52;54.26;101338.34;5049818;28;20041;-83
2023/09/02 03:00:18;;;;;;;4.50;2.83;;;;;;;16.52;54.45;101343.88;5028583;28;20087;-84
2023/09/02 03:02:48;;;;;;;4.88;2.80;;;;;;;16.52;54.52;101346.66;5041758;28;20119;-83
2023/09/02 03:05:18;;;;;;;4.10;2.75;;;;;;;16.49;54.22;101341.47;5032626;28;20041;-83
2023/09/02 03:07:47;;;;;;;8.95;2.92;;;;;;;16.49;54.05;101341.47;5032358;28;20103;-83
2023/09/02 03:10:16;;;;;;;4.13;2.63;;;;;;;16.50;54.00;101347.81;5030528;28;20702;-82
2023/09/02 03:12:44;;;;;;;4.80;2.60;;;;;;;16.49;54.18;101357.19;5030625;28;20110;-83
2023/09/02 03:15:13;;;;;;;3.47;2.35;;;;;;;16.49;54.37;101347.00;5031463;28;20042;-83
2023/09/02 03:17:42;;;;;;;5.38;2.97;;;;;;;16.50;54.22;101345.06;5033486;28;20043;-83
2023/09/02 03:20:12;;;;;;;4.30;2.78;;;;;;;16.51;54.14;101352.34;5030576;28;20045;-84
2023/09/02 03:22:41;;;;;;;4.13;2.65;;;;;;;16.49;54.27;101348.88;5036429;28;20041;-83
2023/09/02 03:25:10;;;;;;;4.13;2.60;;;;;;;16.49;54.14;101360.81;5034496;28;20045;-83
2023/09/02 03:27:38;;;;;;;4.53;2.80;;;;;;;16.47;54.05;101354.56;5028374;28;20052;-84
2023/09/02 03:30:10;;;;;;;3.90;2.50;;;;;;;16.46;54.06;101354.72;5049310;28;20044;-83
2023/09/02 03:32:39;;;;;;;5.10;2.63;;;;;;;16.42;53.81;101354.16;5039526;28;20037;-84
2023/09/02 03:35:08;;;;;;;4.15;2.90;;;;;;;16.43;54.07;101355.91;5035735;28;20033;-84
2023/09/02 03:37:37;;;;;;;5.07;3.05;;;;;;;16.44;54.38;101359.53;5036512;28;20069;-83
2023/09/02 03:40:08;;;;;;;4.55;2.85;;;;;;;16.42;54.47;101356.94;5027692;28;20056;-83
2023/09/02 03:42:36;;;;;;;5.07;2.78;;;;;;;16.39;54.41;101359.16;5034022;28;20045;-84
2023/09/02 03:45:05;;;;;;;4.60;3.03;;;;;;;16.40;54.43;101352.59;5023433;28;20045;-83
2023/09/02 03:47:33;;;;;;;5.38;3.00;;;;;;;16.37;53.99;101353.78;5031687;28;20051;-83
2023/09/02 03:50:07;;;;;;;4.85;3.10;;;;;;;16.38;53.99;101360.19;5030108;28;20037;-83
2023/09/02 03:52:37;;;;;;;5.15;3.00;;;;;;;16.37;54.34;101352.91;5033547;28;20140;-83
2023/09/02 03:55:05;;;;;;;3.90;2.50;;;;;;;16.35;53.93;101361.34;5058893;28;20045;-83
2023/09/02 03:57:34;;;;;;;4.45;2.72;;;;;;;16.34;54.14;101358.75;5034388;28;20079;-83
2023/09/02 04:00:03;;;;;;;4.03;2.58;;;;;;;16.33;54.21;101354.28;5034242;28;20502;-83
2023/09/02 04:02:43;;;;;;;4.47;2.80;;;;;;;16.32;54.24;101347.88;5048053;28;20522;-83
2023/09/02 04:05:13;;;;;;;4.45;2.58;;;;;;;16.33;54.18;101346.84;5025987;28;20041;-83
2023/09/02 04:07:43;;;;;;;4.68;2.33;;;;;;;16.35;54.49;101349.44;5009531;28;20120;-83
2023/09/02 04:10:11;;;;;;;4.03;2.40;;;;;;;16.32;54.14;101347.88;5010242;28;20045;-83
2023/09/02 04:12:39;;;;;;;3.97;2.42;;;;;;;16.33;54.02;101351.53;5012608;28;20128;-83
2023/09/02 04:15:08;;;;;;;4.50;3.03;;;;;;;16.32;54.26;101356.19;5005928;28;20045;-83
2023/09/02 04:17:36;;;;;;;4.63;2.72;;;;;;;16.32;54.18;101353.41;5008285;28;20424;-83
2023/09/02 04:20:05;;;;;;;4.40;2.88;;;;;;;16.32;54.10;101350.66;5001929;28;20034;-83
2023/09/02 04:22:33;;;;;;;4.95;2.85;;;;;;;16.30;53.83;101349.94;5018544;28;20041;-83
2023/09/02 04:25:03;;;;;;;4.38;2.55;;;;;;;16.31;54.10;101346.16;5011173;28;20124;-84
2023/09/02 04:27:31;;;;;;;4.70;2.53;;;;;;;16.27;53.85;101361.28;5035518;28;20057;-85
2023/09/02 04:30:00;;;;;;;4.95;2.95;;;;;;;16.26;54.49;101368.72;5014566;28;20053;-83
2023/09/02 04:32:30;;;;;;;4.25;2.70;;;;;;;16.24;53.95;101372.69;5028427;28;20038;-84
2023/09/02 04:35:00;;;;;;;5.53;3.22;;;;;;;16.22;53.95;101369.19;5009639;28;20041;-83
2023/09/02 04:37:28;;;;;;;4.30;2.72;;;;;;;16.21;53.66;101370.22;5005186;28;20049;-84
2023/09/02 04:39:56;;;;;;;4.32;2.83;;;;;;;16.20;54.23;101376.75;5030919;28;20041;-83
2023/09/02 04:42:26;;;;;;;4.07;2.75;;;;;;;16.21;54.13;101375.75;5026813;28;20096;-83
2023/09/02 04:44:54;;;;;;;4.18;2.80;;;;;;;16.17;53.77;101383.47;5020447;28;20404;-83
2023/09/02 04:47:23;;;;;;;5.00;2.85;;;;;;;16.19;54.36;101383.31;5021154;28;20048;-84
2023/09/02 04:49:55;;;;;;;5.43;3.13;;;;;;;16.16;54.13;101387.25;5007345;28;20049;-83
2023/09/02 04:52:24;;;;;;;5.82;2.83;;;;;;;16.17;54.51;101377.94;5002473;28;20691;-83
2023/09/02 04:54:52;;;;;;;4.53;3.13;;;;;;;16.14;53.88;101381.00;5024553;28;20038;-83
2023/09/02 04:57:20;;;;;;;4.68;3.15;;;;;;;16.14;54.15;101385.66;5004678;28;20041;-82
2023/09/02 04:59:49;;;;;;;4.85;2.80;;;;;;;16.15;54.30;101384.63;5009827;28;20381;-83
2023/09/02 05:02:17;;;;;;;4.60;3.10;;;;;;;16.11;53.88;101383.19;5025708;28;20053;-83
2023/09/02 05:04:46;;;;;;;4.38;3.00;;;;;;;16.09;54.23;101376.97;5011276;28;20424;-83
2023/09/02 05:07:14;;;;;;;5.03;3.30;;;;;;;16.07;53.87;101377.16;5011554;28;20049;-84
2023/09/02 05:09:42;;;;;;;4.18;3.00;;;;;;;16.07;53.83;101379.03;5010398;28;20041;-82
2023/09/02 05:12:11;;;;;;;4.63;3.13;;;;;;;16.06;54.10;101382.81;5007260;28;20045;-83
2023/09/02 05:14:40;;;;;;;4.60;3.17;;;;;;;16.07;54.04;101387.31;5011484;28;20061;-83
2023/09/02 05:17:09;;;;;;;6.43;3.33;;;;;;;16.06;54.30;101391.09;5003728;28;20489;-84
2023/09/02 05:19:38;;;;;;;4.20;2.80;;;;;;;16.05;54.69;101386.59;5011409;28;20048;-84
2023/09/02 05:22:07;;;;;;;4.55;3.13;;;;;;;16.04;54.30;101384.88;5007892;28;20041;-83
2023/09/02 05:24:35;;;;;;;4.50;3.20;;;;;;;16.04;54.27;101387.63;5009481;28;20467;-83
2023/09/02 05:27:04;;;;;;;5.15;3.53;;;;;;;16.04;54.40;101385.72;5011943;28;20041;-83
2023/09/02 05:29:32;;;;;;;4.22;2.80;;;;;;;16.04;55.00;101384.88;4998320;28;20405;-85
2023/09/02 05:32:00;;;;;;;5.85;3.20;;;;;;;16.05;54.50;101387.47;5006032;28;20060;-83
2023/09/02 05:34:29;;;;;;;4.25;2.60;;;;;;;16.08;54.77;101397.34;5004869;28;20653;-82
2023/09/02 05:36:58;;;;;;;4.93;3.13;;;;;;;16.05;54.74;101393.00;5011572;28;20143;-83
2023/09/02 05:39:26;;;;;;;5.28;3.13;;;;;;;16.07;54.84;101396.47;5006318;28;20046;-83
2023/09/02 05:41:54;;;;;;;4.28;2.75;;;;;;;16.09;54.50;101390.78;5003908;28;20038;-83
2023/09/02 05:44:22;;;;;;;4.82;2.90;;;;;;;16.09;54.67;101397.16;5010356;28;20452;-83
2023/09/02 05:46:50;;;;;;;4.57;2.70;;;;;;;16.12;55.30;101399.63;5028576;28;20501;-84
2023/09/02 05:49:18;;;;;;;4.93;2.92;;;;;;;16.13;54.88;101404.13;5009576;28;20072;-82
2023/09/02 05:51:47;;;;;;;5.45;3.13;;;;;;;16.18;55.04;101411.94;5010998;28;20749;-82
2023/09/02 05:54:15;;;;;;;4.07;2.70;;;;;;;16.17;55.00;101415.72;5011651;28;20042;-82
2023/09/02 05:56:43;;;;;;;4.82;2.80;;;;;;;16.19;55.14;101425.59;5019254;28;20545;-83
2023/09/02 05:59:12;;;;;;;5.43;3.10;;;;;;;16.18;54.92;101429.38;5011225;28;20512;-83
2023/09/02 06:01:40;;;;;;;4.50;2.75;;;;;;;16.21;54.62;101422.69;5010780;28;20045;-84
2023/09/02 06:04:08;;;;;;;5.05;2.90;;;;;;;16.22;54.68;101429.97;5005872;28;20042;-83
2023/09/02 06:06:36;;;;;;;4.70;2.80;;;;;;;16.23;54.86;101434.47;5010081;28;20076;-82
2023/09/02 06:09:06;;;;;;;4.30;2.95;;;;;;;16.26;54.74;101435.00;5005859;28;20528;-82
2023/09/02 06:11:34;;;;;;;5.85;2.75;;;;;;;16.25;55.03;101424.09;5004512;28;20050;-82
2023/09/02 06:14:03;;;;;;;4.00;2.40;;;;;;;16.27;55.02;101424.81;5010010;28;20579;-83
2023/09/02 06:16:31;;;;;;;4.18;2.35;;;;;;;16.29;54.86;101424.66;5010933;28;20045;-82
2023/09/02 06:18:58;;;;;;;5.13;2.80;;;;;;;16.31;55.39;101433.66;5025706;28;20265;-82
2023/09/02 06:21:26;;;;;;;4.88;2.85;;;;;;;16.31;54.91;101429.00;5007665;28;20484;-81
2023/09/02 06:23:54;;;;;;;4.65;2.53;;;;;;;16.33;55.10;101429.69;5007244;28;20045;-83
2023/09/02 06:26:25;;;;;;;6.05;3.13;;;;;;;16.36;54.84;101445.97;5011841;28;20069;-83
2023/09/02 06:28:53;;;;;;;5.10;2.35;;;;;;;16.37;55.32;101447.72;5026797;28;20104;-82
2023/09/02 06:31:21;;;;;;;4.45;2.65;;;;;;;16.39;55.27;101447.56;5017241;28;20088;-83
2023/09/02 06:33:49;;;;;;;3.63;2.22;;;;;;;16.40;55.07;101444.66;5041862;28;20057;-82
2023/09/02 06:36:19;;;;;;;4.53;2.10;;;;;;;16.41;55.37;101451.03;5037738;28;20080;-83
2023/09/02 06:38:47;;;;;;;3.35;1.90;;;;;;;16.41;54.84;101448.28;5041882;28;20323;-82
2023/09/02 06:41:16;;;;;;;3.38;1.98;;;;;;;16.43;54.78;101460.00;5034196;28;20071;-83
2023/09/02 06:43:46;;;;;;;3.20;2.00;;;;;;;16.46;54.92;101466.09;5025097;28;20103;-82
2023/09/02 06:46:16;;;;;;;3.92;2.13;;;;;;;16.45;54.75;101455.22;5032885;28;20106;-83
2023/09/02 06:48:44;;;;;;;3.22;1.92;;;;;;;16.45;55.21;101456.06;5030218;28;20056;-81
2023/09/02 06:51:12;;;;;;;2.40;1.52;;;;;;;16.47;55.19;101461.44;5031814;28;20732;-82
2023/09/02 06:53:41;;;;;;;4.53;2.22;;;;;;;16.49;55.26;101460.28;5024986;28;20193;-82
2023/09/02 06:56:11;;;;;;;3.92;1.90;;;;;;;16.51;55.10;101469.25;5033514;28;20052;-82
2023/09/02 06:58:41;;;;;;;3.05;1.83;;;;;;;16.55;55.64;101475.34;5032512;28;20226;-82
2023/09/02 07:01:18;;;;;;;3.30;2.00;;;;;;;16.58;55.00;101467.59;5033039;28;20044;-83
2023/09/02 07:03:46;;;;;;;3.05;1.77;;;;;;;16.57;55.42;101479.69;5029109;28;20455;-82
2023/09/02 07:06:15;;;;;;;3.40;2.03;;;;;;;16.59;55.29;101485.03;5020967;28;20042;-83
2023/09/02 07:08:44;;;;;;;3.40;2.00;;;;;;;16.63;55.04;101490.09;5029045;28;20068;-82
2023/09/02 07:11:13;;;;;;;3.40;1.63;;;;;;;16.67;55.26;101498.06;5032397;28;20139;-82
2023/09/02 07:13:42;;;;;;;3.00;1.67;;;;;;;16.68;54.85;101491.50;5029620;28;20071;-82
2023/09/02 07:16:10;;;;;;;2.88;1.77;;;;;;;16.69;55.44;101496.88;5035114;28;20136;-82
2023/09/02 07:18:40;;;;;;;3.28;1.73;;;;;;;16.73;54.84;101498.31;5030603;28;20052;-82
2023/09/02 07:21:08;;;;;;;2.85;1.52;;;;;;;16.74;54.97;101499.19;5022904;28;20092;-82
2023/09/02 07:23:36;;;;;;;4.03;1.70;;;;;;;16.75;55.40;101507.28;5039983;28;20076;-83
2023/09/02 07:26:05;;;;;;;2.63;1.60;;;;;;;16.78;55.02;101506.97;5031229;28;20043;-81
2023/09/02 07:28:36;;;;;;;3.00;1.58;;;;;;;16.81;55.09;101508.56;5027934;28;20072;-84
2023/09/02 07:31:05;;;;;;;3.38;1.70;;;;;;;16.81;55.35;101506.69;5027558;28;20046;-82
2023/09/02 07:33:34;;;;;;;3.08;1.70;;;;;;;16.84;55.19;101509.09;5045780;28;20558;-82
2023/09/02 07:36:09;;;;;;;5.40;1.77;;;;;;;16.90;55.09;101513.16;5026761;28;20175;-82
2023/09/02 07:38:37;;;;;;;2.25;1.50;;;;;;;16.89;55.53;101523.34;5026786;28;20053;-83
2023/09/02 07:41:09;;;;;;;2.40;1.40;;;;;;;16.92;55.63;101531.28;5028386;28;20107;-81
2023/09/02 07:43:38;;;;;;;3.50;1.48;;;;;;;16.97;55.76;101542.78;5030281;28;20073;-81
2023/09/02 07:46:06;;;;;;;2.75;1.33;;;;;;;17.01;55.30;101549.72;5033157;28;20068;-82
2023/09/02 07:48:34;;;;;;;5.03;1.88;;;;;;;17.07;55.49;101555.66;5027539;28;20045;-82
2023/09/02 07:51:02;;;;;;;4.63;2.30;;;;;;;17.12;55.39;101569.88;5034092;28;20045;-81
2023/09/02 07:53:31;;;;;;;4.93;2.17;;;;;;;17.17;55.17;101571.13;5032179;28;20064;-83
2023/09/02 07:55:59;;;;;;;4.75;2.20;;;;;;;17.19;55.14;101576.50;5032789;28;20041;-81
2023/09/02 07:58:27;;;;;;;4.00;2.00;;;;;;;17.22;54.76;101571.53;5027427;28;20069;-82
2023/09/02 08:00:56;;;;;;;2.95;1.60;;;;;;;17.25;54.92;101570.31;5024541;28;20095;-83
2023/09/02 08:03:25;;;;;;;3.13;1.58;;;;;;;17.27;55.11;101565.50;5023475;28;20037;-82
2023/09/02 08:05:53;;;;;;;3.05;1.52;;;;;;;17.29;54.82;101563.44;5030957;28;20049;-83
2023/09/02 08:08:21;;;;;;;2.53;1.50;;;;;;;17.32;54.99;101565.88;5026164;28;20047;-82
2023/09/02 08:11:00;;;;;;;3.40;1.80;;;;;;;17.35;54.54;101562.78;5014077;28;20045;-82
2023/09/02 08:13:29;;;;;;;3.88;1.65;;;;;;;17.35;54.92;101569.19;5031724;28;20046;-83
2023/09/02 08:15:57;;;;;;;4.38;2.10;;;;;;;17.37;54.80;101564.38;5008274;28;20104;-82
2023/09/02 08:18:25;;;;;;;3.58;1.77;;;;;;;17.38;54.67;101571.66;5029038;28;20063;-84
2023/09/02 08:20:53;;;;;;;3.38;1.60;;;;;;;17.39;54.57;101565.09;5032659;28;20064;-82
2023/09/02 08:23:21;;;;;;;3.33;1.67;;;;;;;17.42;54.39;101568.53;5001745;28;20087;-82
2023/09/02 08:25:51;;;;;;;2.58;1.48;;;;;;;17.43;54.43;101575.81;5018304;28;20489;-81
2023/09/02 08:28:19;;;;;;;3.42;1.70;;;;;;;17.42;54.71;101574.06;5030189;28;20053;-83
2023/09/02 08:30:47;;;;;;;2.35;1.15;;;;;;;17.43;54.71;101581.34;5021173;28;20046;-82
2023/09/02 08:33:15;;;;;;;3.60;1.50;;;;;;;17.44;54.30;101586.72;5027658;28;20095;-82
2023/09/02 08:35:44;;;;;;;2.83;1.40;;;;;;;17.45;54.29;101593.13;5026805;28;20037;-82
2023/09/02 08:38:12;;;;;;;2.78;1.60;;;;;;;17.47;54.37;101599.38;5024625;28;20041;-82
2023/09/02 08:40:44;;;;;;;6.60;1.75;;;;;;;17.49;54.83;101589.00;5024005;28;20446;-81
2023/09/02 08:43:14;;;;;;;2.50;1.50;;;;;;;17.51;54.61;101593.34;5027051;28;20046;-82
2023/09/02 08:45:46;;;;;;;2.65;1.60;;;;;;;17.53;55.02;101591.28;5028812;28;20075;-82
2023/09/02 08:48:23;;;;;;;3.80;1.75;;;;;;;17.56;54.59;101592.88;5027917;28;20046;-81
2023/09/02 08:50:55;;;;;;;2.35;1.40;;;;;;;17.59;55.13;101587.00;5022642;28;20805;-83
2023/09/02 08:53:27;;;;;;;2.88;1.70;;;;;;;17.63;54.66;101592.06;5029799;28;20041;-80
2023/09/02 08:55:56;;;;;;;2.78;1.40;;;;;;;17.64;54.74;101591.03;5029425;28;20047;-81
2023/09/02 08:58:26;;;;;;;2.50;1.20;;;;;;;17.70;55.01;101586.72;5024981;28;20138;-81
2023/09/02 09:00:54;;;;;;;2.30;1.40;;;;;;;17.72;55.20;101581.91;5028687;28;20064;-81
2023/09/02 09:03:25;;;;;;;2.05;1.35;;;;;;;17.76;55.20;101580.56;5037706;28;20046;-81
2023/09/02 09:05:54;;;;;;;2.60;1.70;;;;;;;17.78;54.65;101584.03;5028876;28;20045;-82
2023/09/02 09:08:24;;;;;;;3.00;1.88;;;;;;;17.84;54.85;101588.91;5016012;28;20610;-83
2023/09/02 09:10:53;;;;;;;3.70;1.70;;;;;;;17.86;55.18;101583.22;5025346;28;20083;-82
2023/09/02 09:13:21;;;;;;;3.42;1.80;;;;;;;17.89;54.90;101578.25;5027724;28;20398;-82
2023/09/02 09:15:52;;;;;;;2.53;1.58;;;;;;;17.95;55.12;101573.94;5024039;28;20045;-82
2023/09/02 09:18:20;;;;;;;3.10;1.50;;;;;;;17.97;55.18;101577.41;5021162;28;20095;-82
2023/09/02 09:20:48;;;;;;;2.53;1.27;;;;;;;18.01;55.55;101579.66;5028782;28;20045;-82
2023/09/02 09:23:16;;;;;;;3.10;1.55;;;;;;;18.06;55.07;101582.78;5027359;28;20120;-83
2023/09/02 09:25:49;;;;;;;2.20;1.38;;;;;;;18.12;55.44;101578.50;5024336;28;20052;-83
2023/09/02 09:28:17;;;;;;;4.15;1.67;;;;;;;18.15;55.83;101576.25;5005314;28;20136;-85
2023/09/02 09:30:45;;;;;;;2.58;1.58;;;;;;;18.24;55.17;101568.84;5026824;28;20043;-84
2023/09/02 09:33:19;;;;;;;2.03;1.33;;;;;;;18.34;55.30;101568.72;5031832;28;20045;-84
2023/09/02 09:35:48;;;;;;;2.15;1.58;;;;;;;18.38;55.13;101572.91;5030723;28;20041;-84
2023/09/02 09:38:17;;;;;;;2.40;1.50;;;;;;;18.45;55.21;101583.16;5032430;28;20048;-84
2023/09/02 09:40:45;;;;;;;2.22;1.30;;;;;;;18.53;55.59;101582.34;5031083;28;20111;-85
2023/09/02 09:43:23;;;;;;;4.13;1.35;;;;;;;18.65;55.73;101585.63;5039002;28;20056;-80
2023/09/02 09:45:53;;;;;;;2.85;1.42;;;;;;;18.73;55.91;101592.06;5011007;28;20037;-80
2023/09/02 09:48:23;;;;;;;2.85;1.20;;;;;;;18.83;55.84;101594.69;5026716;28;20112;-79
2023/09/02 09:50:51;;;;;;;2.22;1.25;;;;;;;18.91;55.88;101589.16;5028855;28;20371;-80
2023/09/02 09:53:19;;;;;;;2.17;1.33;;;;;;;19.04;56.01;101594.22;5014768;28;20123;-79
2023/09/02 09:55:48;;;;;;;2.10;1.27;;;;;;;19.16;55.81;101595.59;5011768;28;20046;-79
2023/09/02 09:58:23;;;;;;;2.28;1.25;;;;;;;19.31;55.05;101601.34;5007121;28;20049;-80
2023/09/02 10:00:52;;;;;;;3.03;1.33;;;;;;;19.39;55.38;101599.44;5009857;28;20048;-80
2023/09/02 10:03:31;;;;;;;3.47;1.40;;;;;;;19.54;54.39;101614.34;5049925;28;20041;-80
2023/09/02 10:05:59;;;;;;;2.58;1.25;;;;;;;19.63;55.19;101612.41;5029323;28;20060;-80
2023/09/02 10:08:27;;;;;;;3.40;1.55;;;;;;;19.76;54.96;101609.13;5025264;28;20041;-79
2023/09/02 10:10:55;;;;;;;3.30;1.40;;;;;;;19.87;54.61;101606.81;5030303;28;20578;-79
2023/09/02 10:13:24;;;;;;;3.35;1.30;;;;;;;19.99;54.97;101601.78;5026666;28;20073;-79
2023/09/02 10:15:52;;;;;;;3.45;1.30;;;;;;;20.10;54.62;101600.56;5018169;28;20045;-79
2023/09/02 10:18:21;;;;;;;2.13;1.20;;;;;;;20.21;54.35;101600.13;5011043;28;20045;-80
2023/09/02 10:20:50;;;;;;;2.95;1.40;;;;;;;20.32;53.91;101611.75;5013687;28;20131;-80
2023/09/02 10:23:20;;;;;;;2.28;1.17;;;;;;;20.43;53.76;101612.41;5020221;28;20046;-80
2023/09/02 10:25:56;;;;;;;1.92;1.00;;;;;;;20.54;53.32;101623.97;5023083;28;20116;-80
2023/09/02 10:28:31;;;;;;;2.60;1.23;;;;;;;20.62;53.62;101623.09;5013392;28;20055;-79
2023/09/02 10:31:03;;;;;;;2.70;1.40;;;;;;;20.70;53.05;101631.41;5011546;28;20903;-80
2023/09/02 10:33:37;;;;;;;3.03;1.40;;;;;;;20.76;52.52;101627.91;5017983;28;20053;-79
2023/09/02 10:36:07;;;;;;;2.08;1.25;;;;;;;20.84;51.93;101627.84;5008771;28;20037;-80
2023/09/02 10:38:47;;;;;;;2.85;1.30;;;;;;;20.90;51.03;101624.31;5021882;28;20116;-81
2023/09/02 10:41:16;;;;;;;2.40;1.30;;;;;;;20.92;51.75;101624.16;5021012;28;20099;-78
2023/09/02 10:43:46;;;;;;;3.00;1.35;;;;;;;20.97;51.67;101628.09;5007355;28;20125;-78
2023/09/02 10:46:14;;;;;;;2.33;1.50;;;;;;;20.98;51.55;101629.84;5010557;28;20541;-79
2023/09/02 10:48:45;;;;;;;2.72;1.40;;;;;;;21.02;51.23;101622.00;5018777;28;20120;-79
2023/09/02 10:51:15;;;;;;;3.00;1.30;;;;;;;21.04;51.08;101626.31;5022436;28;20037;-80
2023/09/02 10:54:01;;;;;;;1.80;1.10;;;;;;;21.06;50.25;101629.78;5040735;28;20055;-78
2023/09/02 10:56:31;;;;;;;3.17;1.08;;;;;;;21.07;51.26;101636.22;5028990;28;20052;-77
2023/09/02 10:59:00;;;;;;;3.53;1.40;;;;;;;21.10;51.42;101636.72;5030159;28;20512;-78
2023/09/02 11:01:42;;;;;;;2.00;1.23;;;;;;;21.13;50.41;101627.13;5025780;28;20098;-79
2023/09/02 11:04:10;;;;;;;2.22;1.20;;;;;;;21.11;51.41;101627.31;5023315;28;20516;-78
2023/09/02 11:07:20;;;;;;;3.03;1.30;;;;;;;21.15;50.51;101628.69;5047340;28;20519;-78
2023/09/02 11:09:52;;;;;;;2.22;1.23;;;;;;;21.21;50.67;101623.41;5033667;28;20063;-80
2023/09/02 11:12:20;;;;;;;;;;;;;;;20.94;51.59;101622.94;5047463;28;20052;-79
2023/09/02 11:15:13;;;;;;;3.65;0.98;;;;;;;21.25;50.87;101625.66;5027484;28;20403;-78
2023/09/02 11:17:42;;;;;;;2.85;1.42;;;;;;;21.32;51.53;101623.00;5049719;28;20045;-78
2023/09/02 11:20:11;;;;;;;2.38;1.10;;;;;;;21.40;51.28;101628.50;5031367;28;20044;-78
2023/09/02 11:23:01;;;;;;;2.22;1.20;;;;;;;21.45;50.58;101634.38;5031658;28;20052;-79
2023/09/02 11:25:39;;;;;;;2.00;1.00;;;;;;;21.51;50.59;101628.94;5025791;28;20045;-79
2023/09/02 11:28:08;;;;;;;2.72;1.27;;;;;;;21.55;50.84;101632.19;4990405;28;1143095;-78
2023/09/02 11:30:37;;;;;;;3.50;1.13;;;;;;;21.61;50.82;101630.56;5024188;28;20057;-79
2023/09/02 11:33:06;;;;;;;3.38;1.50;;;;;;;21.65;50.37;101629.16;5027358;28;20075;-79
2023/09/02 11:35:36;;;;;;;4.45;1.20;;;;;;;21.71;50.45;101625.59;5043432;28;20059;-79